createdAt,value
2024-03-26T00:00:44.203Z,76.90
2024-03-26T00:03:17.670Z,76.46
2024-03-26T00:05:50.447Z,76.83
2024-03-26T00:08:24.331Z,77.20
2024-03-26T00:10:57.636Z,76.54
2024-03-26T00:13:28.638Z,76.91
2024-03-26T00:15:59.536Z,76.93
2024-03-26T00:18:33.084Z,76.98
2024-03-26T00:21:06.412Z,77.06
2024-03-26T00:23:37.526Z,77.60
2024-03-26T00:26:10.848Z,78.12
2024-03-26T00:28:43.989Z,77.76
2024-03-26T00:31:14.960Z,77.97
2024-03-26T00:33:51.620Z,77.88
2024-03-26T00:36:24.921Z,77.91
2024-03-26T00:38:55.866Z,78.16
2024-03-26T00:41:29.877Z,78.85
2024-03-26T00:44:00.752Z,78.34
2024-03-26T00:46:31.894Z,79.28
2024-03-26T00:49:02.748Z,77.69
2024-03-26T00:51:36.118Z,78.35
2024-03-26T00:54:07.434Z,78.17
2024-03-26T00:56:38.545Z,77.81
2024-03-26T00:59:09.463Z,78.06
2024-03-26T01:01:40.457Z,78.36
2024-03-26T01:04:11.329Z,78.24
2024-03-26T01:06:45.382Z,78.68
2024-03-26T01:09:16.441Z,77.77
2024-03-26T01:11:49.134Z,77.71
2024-03-26T01:14:20.053Z,77.82
2024-03-26T01:16:50.975Z,77.74
2024-03-26T01:19:21.847Z,77.74
2024-03-26T01:21:53.301Z,78.33
2024-03-26T01:24:24.271Z,78.74
2024-03-26T01:26:55.179Z,78.99
2024-03-26T01:29:26.117Z,77.44
2024-03-26T01:31:57.029Z,77.40
2024-03-26T01:34:28.046Z,77.77
2024-03-26T01:36:58.974Z,77.24
2024-03-26T01:39:29.915Z,77.50
2024-03-26T01:42:00.814Z,77.95
2024-03-26T01:44:34.047Z,78.04
2024-03-26T01:47:05.182Z,77.53
2024-03-26T01:49:37.931Z,77.93
2024-03-26T01:52:09.008Z,77.30
2024-03-26T01:54:41.487Z,77.58
2024-03-26T01:57:14.844Z,77.70
2024-03-26T01:59:46.029Z,77.20
2024-03-26T02:02:17.017Z,77.81
2024-03-26T02:04:48.895Z,77.45
2024-03-26T02:07:20.484Z,77.72
2024-03-26T02:09:52.937Z,77.64
2024-03-26T02:12:24.197Z,78.11
2024-03-26T02:14:55.119Z,78.53
2024-03-26T02:17:26.454Z,78.39
2024-03-26T02:19:57.549Z,78.49
2024-03-26T02:22:28.514Z,78.38
2024-03-26T02:24:59.654Z,78.51
2024-03-26T02:27:30.571Z,77.87
2024-03-26T02:30:01.720Z,77.94
2024-03-26T02:32:35.056Z,77.34
2024-03-26T02:35:08.492Z,78.47
2024-03-26T02:37:39.542Z,78.16
2024-03-26T02:40:10.735Z,78.25
2024-03-26T02:42:45.105Z,78.36
2024-03-26T02:45:15.986Z,77.96
2024-03-26T02:47:46.914Z,79.30
2024-03-26T02:50:17.872Z,78.87
2024-03-26T02:52:48.940Z,78.93
2024-03-26T02:55:19.834Z,79.67
2024-03-26T02:57:50.819Z,79.24
2024-03-26T03:00:21.822Z,78.59
2024-03-26T03:02:52.815Z,79.43
2024-03-26T03:05:26.184Z,79.57
2024-03-26T03:07:57.119Z,79.33
2024-03-26T03:10:28.056Z,79.90
2024-03-26T03:12:59.112Z,79.58
2024-03-26T03:15:30.000Z,79.75
2024-03-26T03:18:00.939Z,79.33
2024-03-26T03:20:32.440Z,79.27
2024-03-26T03:23:03.358Z,79.14
2024-03-26T03:25:34.275Z,79.63
2024-03-26T03:28:05.156Z,79.74
2024-03-26T03:30:38.371Z,80.00
2024-03-26T03:33:09.369Z,80.12
2024-03-26T03:35:41.624Z,79.89
2024-03-26T03:38:12.868Z,80.50
2024-03-26T03:40:43.842Z,79.35
2024-03-26T03:43:14.961Z,79.58
2024-03-26T03:45:48.077Z,79.58
2024-03-26T03:48:19.031Z,79.83
2024-03-26T03:50:49.966Z,79.94
2024-03-26T03:53:20.987Z,79.93
2024-03-26T03:55:51.879Z,80.58
2024-03-26T03:58:22.779Z,79.67
2024-03-26T04:00:53.697Z,79.79
2024-03-26T04:03:24.709Z,79.70
2024-03-26T04:05:55.581Z,79.84
2024-03-26T04:08:26.526Z,79.71
2024-03-26T04:10:58.369Z,79.61
2024-03-26T04:13:29.336Z,79.51
2024-03-26T04:16:00.334Z,79.68
2024-03-26T04:18:33.778Z,79.56
2024-03-26T04:21:07.031Z,79.38
2024-03-26T04:23:37.991Z,79.65
2024-03-26T04:26:11.699Z,79.74
2024-03-26T04:28:45.001Z,80.21
2024-03-26T04:31:15.895Z,79.35
2024-03-26T04:33:48.013Z,79.58
2024-03-26T04:36:21.190Z,79.72
2024-03-26T04:38:52.090Z,79.06
2024-03-26T04:41:25.492Z,79.94
2024-03-26T04:43:56.540Z,79.46
2024-03-26T04:46:27.426Z,79.55
2024-03-26T04:48:58.343Z,79.10
2024-03-26T04:51:29.280Z,79.92
2024-03-26T04:54:01.374Z,79.63
2024-03-26T04:56:32.299Z,79.96
2024-03-26T04:59:03.191Z,79.93
2024-03-26T05:01:34.104Z,80.41
2024-03-26T05:04:05.092Z,80.10
2024-03-26T05:06:35.987Z,80.59
2024-03-26T05:09:07.332Z,80.55
2024-03-26T05:11:38.262Z,80.71
2024-03-26T05:14:12.932Z,81.31
2024-03-26T05:16:43.869Z,80.68
2024-03-26T05:19:14.942Z,81.78
2024-03-26T05:21:45.888Z,81.11
2024-03-26T05:24:16.924Z,81.61
2024-03-26T05:26:47.817Z,81.65
2024-03-26T05:29:23.800Z,81.60
2024-03-26T05:31:54.699Z,81.76
2024-03-26T05:34:27.178Z,82.84
2024-03-26T05:37:00.615Z,82.17
2024-03-26T05:39:31.913Z,82.21
2024-03-26T05:42:05.093Z,82.24
2024-03-26T05:44:37.110Z,82.21
2024-03-26T05:47:08.083Z,83.04
2024-03-26T05:49:38.994Z,82.64
2024-03-26T05:52:09.888Z,83.34
2024-03-26T05:54:40.853Z,83.23
2024-03-26T05:57:11.773Z,83.51
2024-03-26T05:59:42.822Z,83.32
2024-03-26T06:02:13.719Z,83.03
2024-03-26T06:04:47.024Z,83.67
2024-03-26T06:07:18.019Z,83.22
2024-03-26T06:09:49.103Z,83.23
2024-03-26T06:12:19.995Z,83.94
2024-03-26T06:14:52.102Z,82.62
2024-03-26T06:17:24.125Z,83.14
2024-03-26T06:19:55.118Z,83.29
2024-03-26T06:22:26.011Z,83.03
2024-03-26T06:24:57.897Z,82.82
2024-03-26T06:27:28.978Z,83.12
2024-03-26T06:29:59.964Z,82.05
2024-03-26T06:32:30.924Z,81.37
2024-03-26T06:35:01.949Z,82.04
2024-03-26T06:37:32.822Z,82.23
2024-03-26T06:40:04.506Z,81.20
2024-03-26T06:42:35.442Z,80.39
2024-03-26T06:45:09.234Z,80.84
2024-03-26T06:47:43.222Z,80.08
2024-03-26T06:50:14.139Z,79.89
2024-03-26T06:52:48.512Z,79.62
2024-03-26T06:55:20.278Z,79.74
2024-03-26T06:57:51.352Z,79.49
2024-03-26T07:00:24.481Z,78.48
2024-03-26T07:02:58.424Z,78.74
2024-03-26T07:05:29.841Z,78.29
2024-03-26T07:08:00.786Z,77.99
2024-03-26T07:10:31.728Z,77.68
2024-03-26T07:13:04.198Z,77.51
2024-03-26T07:15:36.150Z,77.04
2024-03-26T07:18:09.426Z,76.46
2024-03-26T07:20:40.406Z,75.33
2024-03-26T07:23:11.335Z,73.88
2024-03-26T07:25:42.318Z,75.03
2024-03-26T07:28:13.324Z,74.76
2024-03-26T07:30:44.349Z,73.91
2024-03-26T07:33:15.358Z,73.91
2024-03-26T07:35:46.263Z,72.31
2024-03-26T07:38:17.743Z,72.34
2024-03-26T07:40:48.714Z,70.97
2024-03-26T07:43:23.896Z,71.54
2024-03-26T07:45:55.200Z,71.55
2024-03-26T07:48:26.962Z,70.56
2024-03-26T07:50:57.972Z,70.07
2024-03-26T07:53:30.735Z,68.26
2024-03-26T07:56:02.665Z,67.55
2024-03-26T07:58:33.817Z,67.39
2024-03-26T08:01:04.795Z,66.76
2024-03-26T08:03:35.919Z,67.14
2024-03-26T08:06:06.983Z,65.89
2024-03-26T08:08:37.986Z,64.92
2024-03-26T08:11:09.127Z,64.79
2024-03-26T08:13:40.074Z,63.88
2024-03-26T08:16:11.285Z,64.47
2024-03-26T08:18:42.294Z,65.02
2024-03-26T08:21:15.590Z,63.67
2024-03-26T08:23:46.469Z,63.53
2024-03-26T08:26:17.455Z,64.22
2024-03-26T08:28:48.336Z,62.80
2024-03-26T08:31:20.378Z,63.34
2024-03-26T08:33:51.460Z,63.51
2024-03-26T08:36:25.383Z,62.83
2024-03-26T08:38:56.353Z,62.90
2024-03-26T08:41:27.563Z,62.62
2024-03-26T08:43:59.763Z,62.00
2024-03-26T08:46:30.645Z,61.88
2024-03-26T08:49:02.179Z,62.69
2024-03-26T08:51:33.089Z,62.58
2024-03-26T08:54:09.482Z,62.84
2024-03-26T08:56:40.460Z,62.31
2024-03-26T08:59:11.363Z,62.48
2024-03-26T09:01:42.261Z,62.64
2024-03-26T09:04:13.587Z,62.57
2024-03-26T09:06:44.664Z,61.85
2024-03-26T09:09:15.649Z,61.26
2024-03-26T09:11:46.587Z,61.88
2024-03-26T09:14:18.601Z,61.61
2024-03-26T09:16:51.974Z,61.29
2024-03-26T09:19:22.874Z,62.24
2024-03-26T09:21:56.417Z,62.87
2024-03-26T09:24:39.761Z,62.78
2024-03-26T09:27:17.262Z,62.02
2024-03-26T09:29:53.976Z,61.85
2024-03-26T09:32:24.873Z,60.94
2024-03-26T09:34:55.957Z,60.87
2024-03-26T09:37:30.047Z,60.43
2024-03-26T09:40:01.663Z,61.01
2024-03-26T09:42:32.610Z,61.33
2024-03-26T09:45:06.219Z,60.83
2024-03-26T09:47:38.440Z,61.08
2024-03-26T09:50:15.382Z,60.02
2024-03-26T09:52:50.511Z,61.17
2024-03-26T09:55:23.382Z,60.84
2024-03-26T09:57:56.593Z,60.67
2024-03-26T10:00:38.161Z,61.02
2024-03-26T10:03:13.347Z,59.05
2024-03-26T10:05:49.618Z,59.40
2024-03-26T10:08:20.587Z,60.10
2024-03-26T10:10:51.560Z,59.01
2024-03-26T10:13:23.488Z,58.22
2024-03-26T10:15:56.994Z,58.36
2024-03-26T10:18:29.885Z,58.03
2024-03-26T10:21:04.016Z,58.35
2024-03-26T10:23:39.901Z,58.19
2024-03-26T10:26:12.209Z,57.46
2024-03-26T10:28:53.804Z,58.55
2024-03-26T10:31:25.600Z,58.64
2024-03-26T10:33:59.316Z,59.25
2024-03-26T10:36:30.484Z,59.09
2024-03-26T10:39:04.773Z,58.07
2024-03-26T10:41:38.948Z,57.87
2024-03-26T10:44:11.161Z,58.05
2024-03-26T10:46:45.830Z,58.18
2024-03-26T10:49:17.213Z,58.30
2024-03-26T10:51:49.650Z,59.09
2024-03-26T10:54:24.452Z,57.97
2024-03-26T10:56:56.900Z,57.14
2024-03-26T10:59:33.426Z,58.01
2024-03-26T11:02:04.513Z,58.25
2024-03-26T11:04:37.890Z,58.08
2024-03-26T11:07:09.379Z,57.44
2024-03-26T11:09:40.856Z,57.67
2024-03-26T11:12:14.799Z,57.16
2024-03-26T11:14:46.898Z,58.59
2024-03-26T11:17:17.918Z,57.46
2024-03-26T11:19:54.505Z,57.93
2024-03-26T11:22:25.450Z,60.24
2024-03-26T11:25:08.172Z,57.83
2024-03-26T11:27:39.163Z,58.25
2024-03-26T11:30:15.425Z,59.56
2024-03-26T11:32:47.088Z,57.88
2024-03-26T11:35:26.145Z,57.59
2024-03-26T11:38:02.075Z,56.50
2024-03-26T11:40:34.191Z,56.94
2024-03-26T11:43:06.290Z,57.69
2024-03-26T11:45:37.276Z,57.62
2024-03-26T11:48:08.369Z,57.19
2024-03-26T11:50:39.362Z,57.78
2024-03-26T11:53:11.043Z,56.22
2024-03-26T11:55:42.443Z,56.20
2024-03-26T11:58:13.314Z,54.67
2024-03-26T12:00:44.259Z,55.17
2024-03-26T12:03:16.309Z,56.25
2024-03-26T12:05:47.769Z,56.41
2024-03-26T12:08:22.293Z,55.57
2024-03-26T12:10:53.346Z,55.35
2024-03-26T12:13:25.394Z,55.64
2024-03-26T12:15:59.346Z,54.60
2024-03-26T12:18:32.778Z,55.66
2024-03-26T12:21:03.738Z,55.15
2024-03-26T12:23:36.920Z,56.27
2024-03-26T12:26:11.465Z,56.40
2024-03-26T12:28:45.114Z,55.09
2024-03-26T12:31:18.160Z,54.18
2024-03-26T12:33:53.786Z,54.22
2024-03-26T12:36:24.808Z,54.17
2024-03-26T12:38:59.162Z,54.58
2024-03-26T12:41:32.338Z,54.57
2024-03-26T12:44:13.021Z,55.13
2024-03-26T12:46:49.913Z,54.00
2024-03-26T12:49:23.817Z,53.64
2024-03-26T12:52:01.007Z,55.23
2024-03-26T12:54:34.531Z,55.12
2024-03-26T12:57:08.646Z,54.91
2024-03-26T12:59:42.470Z,54.80
2024-03-26T13:02:14.146Z,54.73
2024-03-26T13:04:45.199Z,54.56
2024-03-26T13:07:16.198Z,54.01
2024-03-26T13:09:49.754Z,54.96
2024-03-26T13:12:23.415Z,54.55
2024-03-26T13:14:56.833Z,54.55
2024-03-26T13:17:32.796Z,54.37
2024-03-26T13:20:06.811Z,54.80
2024-03-26T13:22:40.300Z,54.84
2024-03-26T13:25:13.741Z,55.21
2024-03-26T13:27:44.687Z,55.64
2024-03-26T13:30:22.233Z,55.53
2024-03-26T13:32:57.760Z,55.94
2024-03-26T13:35:28.789Z,55.69
2024-03-26T13:38:02.175Z,54.85
2024-03-26T13:40:49.980Z,54.80
2024-03-26T13:43:26.601Z,54.61
2024-03-26T13:45:59.946Z,54.30
2024-03-26T13:48:33.231Z,53.73
2024-03-26T13:51:04.223Z,54.73
2024-03-26T13:53:35.255Z,53.87
2024-03-26T13:56:08.652Z,53.67
2024-03-26T13:58:40.125Z,53.41
2024-03-26T14:01:14.064Z,53.53
2024-03-26T14:03:48.172Z,53.82
2024-03-26T14:06:22.182Z,53.78
2024-03-26T14:08:55.533Z,54.14
2024-03-26T14:11:29.612Z,53.50
2024-03-26T14:14:06.158Z,54.06
2024-03-26T14:16:39.364Z,53.54
2024-03-26T14:19:13.227Z,53.72
2024-03-26T14:21:49.439Z,54.14
2024-03-26T14:24:20.698Z,54.47
2024-03-26T14:26:51.800Z,54.84
2024-03-26T14:29:25.408Z,55.22
2024-03-26T14:31:59.200Z,55.72
2024-03-26T14:34:32.539Z,56.29
2024-03-26T14:37:03.484Z,56.56
2024-03-26T14:39:36.656Z,57.31
2024-03-26T14:42:07.692Z,57.29
2024-03-26T14:44:42.198Z,57.17
2024-03-26T14:47:15.326Z,57.77
2024-03-26T14:49:49.060Z,57.55
2024-03-26T14:52:19.956Z,57.49
2024-03-26T14:54:52.062Z,58.05
2024-03-26T14:57:22.989Z,58.55
2024-03-26T14:59:56.495Z,58.34
2024-03-26T15:02:29.741Z,58.57
2024-03-26T15:05:05.703Z,58.27
2024-03-26T15:07:37.413Z,58.96
2024-03-26T15:10:08.750Z,58.61
2024-03-26T15:12:42.550Z,59.24
2024-03-26T15:15:14.985Z,59.02
2024-03-26T15:17:45.933Z,59.10
2024-03-26T15:20:21.304Z,59.98
2024-03-26T15:22:52.388Z,59.91
2024-03-26T15:25:26.381Z,60.08
2024-03-26T15:28:16.134Z,60.17
2024-03-26T15:31:05.432Z,60.26
2024-03-26T15:33:37.449Z,60.55
2024-03-26T15:36:08.629Z,60.61
2024-03-26T15:38:41.848Z,60.55
2024-03-26T15:41:13.221Z,60.93
2024-03-26T15:43:44.243Z,61.54
2024-03-26T15:46:18.930Z,61.67
2024-03-26T15:48:50.114Z,62.07
2024-03-26T15:51:23.167Z,62.07
2024-03-26T15:53:55.490Z,61.54
2024-03-26T15:56:26.773Z,62.18
2024-03-26T15:58:59.875Z,61.91
2024-03-26T16:01:30.859Z,62.16
2024-03-26T16:04:04.460Z,61.49
2024-03-26T16:06:37.698Z,62.14
2024-03-26T16:09:09.736Z,61.36
2024-03-26T16:11:41.316Z,62.05
2024-03-26T16:14:13.450Z,62.15
2024-03-26T16:16:46.597Z,61.49
2024-03-26T16:19:18.362Z,61.06
2024-03-26T16:21:49.512Z,60.64
2024-03-26T16:24:21.541Z,60.57
2024-03-26T16:26:59.666Z,60.41
2024-03-26T16:29:30.685Z,61.16
2024-03-26T16:32:05.475Z,61.30
2024-03-26T16:34:36.870Z,60.81
2024-03-26T16:37:07.805Z,60.13
2024-03-26T16:39:38.748Z,60.65
2024-03-26T16:42:10.869Z,60.77
2024-03-26T16:44:44.745Z,61.42
2024-03-26T16:47:16.160Z,61.17
2024-03-26T16:49:47.387Z,61.17
2024-03-26T16:52:18.284Z,61.25
2024-03-26T16:54:49.741Z,61.59
2024-03-26T16:57:20.704Z,60.73
2024-03-26T16:59:53.821Z,60.31
2024-03-26T17:02:24.711Z,59.15
2024-03-26T17:05:02.793Z,59.03
2024-03-26T17:07:33.953Z,57.82
2024-03-26T17:10:09.889Z,57.66
2024-03-26T17:12:40.836Z,57.66
2024-03-26T17:15:11.829Z,58.16
2024-03-26T17:17:43.521Z,58.43
2024-03-26T17:20:16.612Z,59.83
2024-03-26T17:22:52.629Z,60.44
2024-03-26T17:25:26.853Z,60.74
2024-03-26T17:27:58.166Z,61.55
2024-03-26T17:30:29.516Z,62.21
2024-03-26T17:33:02.869Z,62.63
2024-03-26T17:35:36.177Z,62.98
2024-03-26T17:38:10.197Z,63.47
2024-03-26T17:40:42.323Z,63.74
2024-03-26T17:43:14.542Z,64.65
2024-03-26T17:45:45.481Z,65.15
2024-03-26T17:48:16.456Z,65.64
2024-03-26T17:50:47.431Z,65.95
2024-03-26T17:53:18.487Z,66.23
2024-03-26T17:55:49.519Z,66.30
2024-03-26T17:58:20.418Z,66.74
2024-03-26T18:00:51.560Z,67.23
2024-03-26T18:03:22.669Z,68.00
2024-03-26T18:05:53.581Z,68.47
2024-03-26T18:08:24.549Z,69.05
2024-03-26T18:10:57.804Z,69.15
2024-03-26T18:13:31.739Z,69.62
2024-03-26T18:16:11.174Z,70.12
2024-03-26T18:18:48.102Z,70.39
2024-03-26T18:21:22.788Z,70.63
2024-03-26T18:23:56.222Z,70.91
2024-03-26T18:26:30.189Z,71.20
2024-03-26T18:29:04.516Z,71.10
2024-03-26T18:31:38.317Z,71.29
2024-03-26T18:34:12.431Z,71.64
2024-03-26T18:36:43.447Z,71.89
2024-03-26T18:39:19.643Z,72.06
2024-03-26T18:41:50.623Z,71.99
2024-03-26T18:44:21.758Z,72.15
2024-03-26T18:46:52.848Z,72.43
2024-03-26T18:49:29.215Z,72.62
2024-03-26T18:52:04.521Z,72.47
2024-03-26T18:54:43.421Z,72.34
2024-03-26T18:57:18.077Z,72.49
2024-03-26T18:59:54.536Z,72.46
2024-03-26T19:02:25.548Z,72.60
2024-03-26T19:05:02.554Z,72.66
2024-03-26T19:07:35.992Z,72.81
2024-03-26T19:10:13.253Z,72.76
2024-03-26T19:12:44.354Z,72.83
2024-03-26T19:15:20.676Z,72.99
2024-03-26T19:17:54.155Z,73.15
2024-03-26T19:20:27.508Z,73.50
2024-03-26T19:23:01.277Z,73.77
2024-03-26T19:25:32.306Z,74.52
2024-03-26T19:28:07.253Z,75.14
2024-03-26T19:30:41.547Z,75.40
2024-03-26T19:33:13.944Z,76.09
2024-03-26T19:35:45.706Z,76.64
2024-03-26T19:38:19.049Z,76.55
2024-03-26T19:40:55.589Z,77.00
2024-03-26T19:43:27.779Z,77.03
2024-03-26T19:46:08.980Z,77.46
2024-03-26T19:48:41.220Z,77.15
2024-03-26T19:51:17.377Z,78.01
2024-03-26T19:53:54.030Z,77.99
2024-03-26T19:56:25.019Z,78.16
2024-03-26T19:59:00.995Z,78.44
2024-03-26T20:01:35.217Z,77.93
2024-03-26T20:04:06.323Z,78.88
2024-03-26T20:06:40.125Z,78.80
2024-03-26T20:09:11.262Z,78.39
2024-03-26T20:11:47.381Z,78.67
2024-03-26T20:14:18.427Z,79.00
2024-03-26T20:16:49.439Z,79.37
2024-03-26T20:19:21.796Z,78.84
2024-03-26T20:21:56.409Z,79.01
2024-03-26T20:24:27.598Z,79.11
2024-03-26T20:27:01.006Z,79.88
2024-03-26T20:29:32.068Z,79.23
2024-03-26T20:32:11.380Z,79.41
2024-03-26T20:34:42.572Z,80.11
2024-03-26T20:37:14.025Z,79.87
2024-03-26T20:39:44.993Z,79.46
2024-03-26T20:42:16.214Z,80.25
2024-03-26T20:44:49.568Z,80.01
2024-03-26T20:47:23.253Z,80.29
2024-03-26T20:49:54.285Z,80.31
2024-03-26T20:52:25.332Z,80.19
2024-03-26T20:54:59.002Z,79.39
2024-03-26T20:57:32.425Z,80.58
2024-03-26T21:00:03.430Z,80.47
2024-03-26T21:02:34.537Z,80.39
2024-03-26T21:05:05.530Z,80.05
2024-03-26T21:07:37.319Z,80.59
2024-03-26T21:10:09.254Z,80.61
2024-03-26T21:12:40.456Z,80.80
2024-03-26T21:15:20.476Z,79.83
2024-03-26T21:17:59.496Z,80.48
2024-03-26T21:20:33.012Z,81.24
2024-03-26T21:23:04.843Z,80.88
2024-03-26T21:25:38.133Z,80.76
2024-03-26T21:28:09.258Z,80.37
2024-03-26T21:30:40.282Z,80.05
2024-03-26T21:33:11.427Z,79.98
2024-03-26T21:35:42.395Z,79.92
2024-03-26T21:38:13.493Z,79.50
2024-03-26T21:40:44.439Z,79.91
2024-03-26T21:43:15.626Z,79.76
2024-03-26T21:45:49.350Z,79.00
2024-03-26T21:48:20.952Z,79.44
2024-03-26T21:50:58.577Z,78.91
2024-03-26T21:53:30.311Z,79.28
2024-03-26T21:56:06.447Z,78.85
2024-03-26T21:58:37.408Z,78.28
2024-03-26T22:01:11.377Z,78.18
2024-03-26T22:03:43.966Z,77.84
2024-03-26T22:06:15.994Z,78.22
2024-03-26T22:08:47.602Z,78.14
2024-03-26T22:11:18.512Z,78.28
2024-03-26T22:13:50.564Z,77.63
2024-03-26T22:16:21.499Z,77.20
2024-03-26T22:18:52.708Z,77.05
2024-03-26T22:21:23.652Z,77.20
2024-03-26T22:23:54.725Z,77.26
2024-03-26T22:26:25.785Z,77.51
2024-03-26T22:28:56.712Z,77.60
2024-03-26T22:31:27.630Z,78.76
2024-03-26T22:33:58.714Z,78.34
2024-03-26T22:36:29.646Z,78.29
2024-03-26T22:39:00.649Z,78.63
2024-03-26T22:41:34.454Z,78.96
2024-03-26T22:44:11.058Z,78.80
2024-03-26T22:46:43.081Z,79.21
2024-03-26T22:49:18.982Z,79.10
2024-03-26T22:51:52.499Z,79.01
2024-03-26T22:54:27.751Z,79.14
2024-03-26T22:57:01.132Z,79.29
2024-03-26T22:59:33.059Z,79.07
2024-03-26T23:02:06.292Z,79.12
2024-03-26T23:04:37.384Z,79.27
2024-03-26T23:07:08.408Z,78.83
2024-03-26T23:09:41.725Z,79.01
2024-03-26T23:12:15.130Z,78.83
2024-03-26T23:14:47.315Z,78.43
2024-03-26T23:17:20.465Z,78.83
2024-03-26T23:19:51.434Z,78.29
2024-03-26T23:22:22.337Z,78.10
2024-03-26T23:24:55.730Z,78.17
2024-03-26T23:27:32.758Z,78.01
2024-03-26T23:30:04.596Z,77.85
2024-03-26T23:32:35.541Z,77.72
2024-03-26T23:35:06.603Z,77.88
2024-03-26T23:37:37.800Z,78.54
2024-03-26T23:40:17.610Z,78.45
2024-03-26T23:42:51.158Z,78.16
2024-03-26T23:45:22.132Z,77.91
2024-03-26T23:47:53.111Z,78.19
2024-03-26T23:50:24.730Z,78.10
2024-03-26T23:52:55.837Z,78.22
2024-03-26T23:55:26.773Z,78.45
2024-03-26T23:58:00.088Z,78.25
